Terminal Aerodrome Forecast
Issued by NWS

Home | Current Version | Previous Version | Text Only | Print | Product List | Glossary Off
Versions: 1 2 3 4 5 6 7 8 9 10 11 12 13 14

121
FTUS43 KBIS 152329
TAFMOT
TAF
KMOT 152329Z 1600/1624 23009KT P6SM SKC
     FM161300 26008KT P6SM BKN040
     FM162100 28008KT P6SM SCT060=

USA.gov is the U.S. government's official web portal to all federal, state and local government web resources and services.